createdAt,value
2023-05-19T00:01:37.702Z,98.73
2023-05-19T00:04:05.512Z,99.17
2023-05-19T00:06:33.266Z,99.10
2023-05-19T00:09:03.745Z,99.14
2023-05-19T00:11:31.133Z,99.33
2023-05-19T00:14:00.487Z,99.48
2023-05-19T00:16:29.800Z,99.56
2023-05-19T00:19:00.207Z,99.64
2023-05-19T00:21:28.503Z,99.16
2023-05-19T00:23:56.251Z,99.43
2023-05-19T00:26:24.628Z,99.01
2023-05-19T00:28:57.525Z,99.07
2023-05-19T00:31:25.071Z,99.03
2023-05-19T00:33:52.391Z,98.89
2023-05-19T00:36:19.689Z,98.90
2023-05-19T00:38:46.854Z,99.17
2023-05-19T00:41:14.319Z,99.18
2023-05-19T00:43:41.560Z,99.50
2023-05-19T00:46:08.917Z,99.63
2023-05-19T00:48:36.367Z,99.71
2023-05-19T00:51:06.545Z,99.93
2023-05-19T00:53:34.908Z,99.12
2023-05-19T00:56:03.379Z,99.04
2023-05-19T00:58:32.532Z,99.43
2023-05-19T01:01:05.260Z,99.01
2023-05-19T01:03:37.403Z,99.46
2023-05-19T01:06:07.935Z,99.63
2023-05-19T01:08:37.405Z,99.96
2023-05-19T01:11:08.296Z,99.73
2023-05-19T01:13:36.939Z,99.99
2023-05-19T01:16:15.273Z,99.86
2023-05-19T01:19:21.123Z,99.64
2023-05-19T01:22:01.186Z,99.86
2023-05-19T01:24:54.980Z,99.44
2023-05-19T01:27:43.749Z,99.47
2023-05-19T01:30:33.895Z,99.76
2023-05-19T01:33:04.640Z,99.69
2023-05-19T01:35:33.408Z,99.71
2023-05-19T01:38:02.204Z,99.39
2023-05-19T01:40:31.158Z,99.65
2023-05-19T01:43:00.492Z,99.91
2023-05-19T01:45:33.034Z,99.99
2023-05-19T01:48:02.699Z,99.99
2023-05-19T01:50:31.192Z,99.99
2023-05-19T01:52:59.376Z,99.99
2023-05-19T01:55:27.913Z,99.99
2023-05-19T01:58:20.809Z,99.99
2023-05-19T02:01:07.919Z,99.99
2023-05-19T02:03:44.246Z,99.99
2023-05-19T02:06:34.968Z,99.99
2023-05-19T02:09:08.995Z,99.99
2023-05-19T02:11:50.556Z,99.99
2023-05-19T02:14:39.100Z,99.99
2023-05-19T02:17:06.670Z,99.99
2023-05-19T02:19:38.183Z,99.99
2023-05-19T02:22:06.088Z,99.99
2023-05-19T02:24:33.290Z,99.99
2023-05-19T02:27:00.595Z,99.76
2023-05-19T02:29:27.941Z,99.62
2023-05-19T02:31:55.366Z,99.84
2023-05-19T02:34:22.985Z,99.99
2023-05-19T02:36:50.726Z,99.47
2023-05-19T02:39:17.997Z,99.28
2023-05-19T02:41:45.417Z,99.55
2023-05-19T02:44:12.588Z,99.51
2023-05-19T02:46:39.945Z,99.37
2023-05-19T02:49:07.460Z,99.99
2023-05-19T02:51:34.742Z,99.77
2023-05-19T02:54:02.671Z,99.39
2023-05-19T02:56:29.969Z,99.47
2023-05-19T02:58:58.493Z,99.00
2023-05-19T03:01:25.740Z,99.42
2023-05-19T03:03:53.118Z,99.69
2023-05-19T03:06:23.252Z,99.99
2023-05-19T03:08:51.260Z,99.91
2023-05-19T03:11:18.574Z,99.99
2023-05-19T03:14:04.387Z,99.89
2023-05-19T03:16:32.524Z,99.76
2023-05-19T03:19:00.235Z,99.49
2023-05-19T03:21:27.809Z,99.65
2023-05-19T03:23:55.052Z,99.64
2023-05-19T03:26:23.154Z,99.76
2023-05-19T03:28:50.914Z,99.99
2023-05-19T03:31:18.509Z,99.36
2023-05-19T03:33:45.783Z,99.42
2023-05-19T03:36:13.285Z,99.80
2023-05-19T03:38:40.571Z,99.54
2023-05-19T03:41:07.878Z,99.22
2023-05-19T03:43:35.244Z,99.34
2023-05-19T03:46:05.171Z,99.80
2023-05-19T03:48:51.527Z,99.99
2023-05-19T03:51:29.980Z,99.99
2023-05-19T03:54:04.609Z,99.28
2023-05-19T03:56:32.841Z,99.30
2023-05-19T03:59:00.408Z,98.95
2023-05-19T04:01:27.781Z,98.87
2023-05-19T04:03:55.123Z,98.75
2023-05-19T04:06:24.152Z,98.76
2023-05-19T04:08:51.350Z,98.97
2023-05-19T04:11:20.076Z,98.13
2023-05-19T04:13:47.286Z,98.09
2023-05-19T04:16:14.873Z,98.28
2023-05-19T04:18:42.567Z,98.40
2023-05-19T04:21:09.854Z,98.16
2023-05-19T04:23:38.700Z,98.43
2023-05-19T04:26:06.741Z,97.65
2023-05-19T04:28:36.753Z,98.09
2023-05-19T04:31:04.129Z,98.51
2023-05-19T04:33:31.312Z,98.45
2023-05-19T04:35:59.073Z,97.72
2023-05-19T04:38:26.291Z,97.90
2023-05-19T04:40:53.611Z,97.75
2023-05-19T04:43:22.328Z,96.85
2023-05-19T04:45:51.546Z,97.38
2023-05-19T04:48:23.893Z,97.29
2023-05-19T04:50:52.036Z,97.72
2023-05-19T04:53:21.769Z,97.10
2023-05-19T04:55:50.294Z,96.88
2023-05-19T04:58:18.437Z,95.99
2023-05-19T05:00:46.337Z,95.54
2023-05-19T05:03:14.739Z,95.06
2023-05-19T05:05:42.182Z,94.22
2023-05-19T05:08:11.258Z,93.72
2023-05-19T05:10:42.926Z,94.45
2023-05-19T05:13:11.821Z,94.08
2023-05-19T05:15:39.712Z,95.43
2023-05-19T05:18:07.660Z,94.20
2023-05-19T05:20:35.735Z,94.69
2023-05-19T05:23:03.208Z,93.11
2023-05-19T05:25:32.495Z,93.00
2023-05-19T05:28:04.958Z,92.34
2023-05-19T05:30:36.736Z,91.72
2023-05-19T05:33:06.360Z,90.45
2023-05-19T05:35:37.492Z,90.26
2023-05-19T05:38:06.740Z,91.81
2023-05-19T05:40:34.915Z,90.26
2023-05-19T05:43:03.713Z,90.07
2023-05-19T05:45:34.663Z,88.49
2023-05-19T05:48:02.795Z,88.23
2023-05-19T05:50:31.879Z,88.78
2023-05-19T05:53:01.521Z,89.13
2023-05-19T05:55:29.175Z,89.14
2023-05-19T05:57:57.054Z,88.77
2023-05-19T06:00:28.148Z,89.30
2023-05-19T06:02:57.299Z,88.32
2023-05-19T06:05:26.532Z,86.01
2023-05-19T06:07:54.846Z,84.37
2023-05-19T06:10:26.199Z,85.02
2023-05-19T06:12:55.254Z,82.73
2023-05-19T06:15:23.764Z,84.62
2023-05-19T06:18:09.333Z,83.87
2023-05-19T06:20:36.646Z,84.64
2023-05-19T06:23:03.882Z,85.40
2023-05-19T06:25:31.391Z,85.45
2023-05-19T06:27:58.814Z,82.40
2023-05-19T06:30:26.509Z,82.75
2023-05-19T06:33:04.997Z,83.45
2023-05-19T06:35:32.826Z,79.92
2023-05-19T06:38:00.034Z,78.42
2023-05-19T06:40:27.347Z,79.86
2023-05-19T06:42:55.107Z,78.43
2023-05-19T06:45:32.141Z,78.03
2023-05-19T06:48:02.004Z,79.22
2023-05-19T06:50:30.008Z,78.64
2023-05-19T06:52:58.509Z,80.69
2023-05-19T06:55:26.132Z,79.41
2023-05-19T06:57:53.368Z,81.38
2023-05-19T07:00:30.595Z,78.40
2023-05-19T07:02:58.403Z,76.60
2023-05-19T07:05:25.769Z,75.07
2023-05-19T07:07:56.885Z,73.59
2023-05-19T07:10:27.853Z,71.54
2023-05-19T07:12:56.185Z,70.39
2023-05-19T07:15:26.094Z,70.39
2023-05-19T07:17:54.257Z,69.57
2023-05-19T07:20:21.740Z,67.01
2023-05-19T07:22:49.042Z,71.49
2023-05-19T07:25:16.418Z,71.40
2023-05-19T07:27:46.846Z,71.27
2023-05-19T07:30:14.346Z,70.93
2023-05-19T07:32:41.654Z,70.14
2023-05-19T07:35:09.112Z,68.95
2023-05-19T07:37:36.518Z,69.37
2023-05-19T07:40:04.947Z,71.30
2023-05-19T07:42:32.378Z,71.90
2023-05-19T07:44:59.800Z,70.73
2023-05-19T07:47:27.254Z,72.06
2023-05-19T07:49:54.578Z,71.72
2023-05-19T07:52:22.035Z,69.67
2023-05-19T07:54:49.324Z,65.49
2023-05-19T07:57:16.726Z,66.15
2023-05-19T07:59:44.013Z,63.43
2023-05-19T08:02:11.429Z,63.26
2023-05-19T08:04:38.911Z,61.72
2023-05-19T08:07:06.278Z,60.75
2023-05-19T08:09:33.748Z,59.91
2023-05-19T08:12:01.747Z,58.83
2023-05-19T08:14:29.154Z,60.37
2023-05-19T08:16:56.383Z,58.75
2023-05-19T08:19:24.361Z,62.89
2023-05-19T08:21:51.630Z,64.16
2023-05-19T08:24:19.187Z,64.51
2023-05-19T08:26:46.444Z,65.24
2023-05-19T08:29:13.628Z,66.51
2023-05-19T08:31:41.008Z,62.77
2023-05-19T08:34:08.368Z,63.42
2023-05-19T08:36:35.586Z,65.58
2023-05-19T08:39:03.327Z,66.79
2023-05-19T08:41:30.487Z,67.53
2023-05-19T08:43:57.867Z,63.30
2023-05-19T08:46:26.238Z,59.95
2023-05-19T08:48:58.678Z,62.28
2023-05-19T08:51:32.040Z,60.19
2023-05-19T08:54:16.023Z,58.89
2023-05-19T08:56:44.756Z,61.74
2023-05-19T08:59:14.346Z,59.66
2023-05-19T09:01:45.787Z,61.27
2023-05-19T09:04:13.485Z,62.88
2023-05-19T09:06:45.123Z,63.81
2023-05-19T09:09:12.597Z,60.65
2023-05-19T09:11:39.806Z,61.36
2023-05-19T09:14:07.111Z,62.42
2023-05-19T09:16:34.764Z,64.17
2023-05-19T09:19:02.145Z,63.65
2023-05-19T09:21:31.213Z,65.37
2023-05-19T09:24:06.267Z,62.68
2023-05-19T09:26:41.288Z,65.76
2023-05-19T09:29:18.205Z,65.81
2023-05-19T09:31:50.599Z,65.36
2023-05-19T09:34:18.559Z,66.70
2023-05-19T09:36:49.519Z,65.21
2023-05-19T09:39:17.499Z,65.77
2023-05-19T09:41:45.057Z,64.39
2023-05-19T09:44:28.923Z,65.59
2023-05-19T09:46:57.353Z,64.50
2023-05-19T09:49:26.598Z,65.24
2023-05-19T09:51:54.651Z,65.89
2023-05-19T09:54:23.753Z,65.39
2023-05-19T09:57:07.096Z,65.78
2023-05-19T09:59:36.565Z,64.41
2023-05-19T10:02:04.078Z,66.79
2023-05-19T10:04:31.710Z,65.41
2023-05-19T10:07:05.539Z,64.97
2023-05-19T10:09:34.248Z,65.51
2023-05-19T10:12:02.490Z,66.34
2023-05-19T10:14:29.984Z,67.20
2023-05-19T10:16:59.013Z,66.87
2023-05-19T10:19:28.855Z,67.12
2023-05-19T10:21:56.895Z,67.34
2023-05-19T10:24:24.277Z,66.11
2023-05-19T10:26:57.848Z,66.35
2023-05-19T10:29:31.868Z,66.64
2023-05-19T10:32:02.577Z,67.28
2023-05-19T10:34:59.629Z,68.12
2023-05-19T10:37:46.697Z,65.89
2023-05-19T10:40:45.930Z,68.12
2023-05-19T10:43:39.839Z,67.01
2023-05-19T10:46:07.177Z,67.42
2023-05-19T10:48:37.381Z,64.91
2023-05-19T10:51:05.266Z,65.91
2023-05-19T10:53:33.764Z,66.33
2023-05-19T10:56:07.715Z,66.46
2023-05-19T10:58:44.205Z,67.28
2023-05-19T11:01:16.966Z,65.80
2023-05-19T11:03:54.597Z,65.30
2023-05-19T11:06:38.154Z,66.15
2023-05-19T11:09:17.939Z,65.62
2023-05-19T11:11:45.307Z,67.98
2023-05-19T11:14:15.258Z,66.68
2023-05-19T11:16:43.280Z,66.46
2023-05-19T11:19:27.620Z,65.54
2023-05-19T11:21:55.835Z,63.34
2023-05-19T11:24:54.283Z,63.68
2023-05-19T11:27:31.314Z,67.22
2023-05-19T11:30:02.003Z,66.41
2023-05-19T11:32:31.854Z,66.88
2023-05-19T11:35:00.830Z,64.57
2023-05-19T11:37:32.323Z,65.33
2023-05-19T11:40:07.622Z,63.96
2023-05-19T11:42:36.246Z,65.51
2023-05-19T11:45:05.001Z,64.04
2023-05-19T11:47:45.929Z,65.51
2023-05-19T11:50:20.466Z,66.48
2023-05-19T11:52:48.219Z,67.39
2023-05-19T11:55:22.052Z,66.88
2023-05-19T11:58:03.788Z,66.33
2023-05-19T12:00:39.709Z,68.29
2023-05-19T12:03:08.168Z,66.54
2023-05-19T12:05:45.505Z,64.89
2023-05-19T12:08:13.256Z,66.05
2023-05-19T12:10:40.990Z,67.61
2023-05-19T12:13:09.958Z,68.27
2023-05-19T12:15:37.796Z,67.06
2023-05-19T12:18:05.739Z,67.00
2023-05-19T12:20:35.801Z,67.25
2023-05-19T12:23:04.130Z,68.36
2023-05-19T12:25:32.181Z,67.31
2023-05-19T12:28:03.361Z,68.04
2023-05-19T12:30:32.194Z,66.60
2023-05-19T12:33:00.077Z,65.94
2023-05-19T12:35:29.087Z,66.27
2023-05-19T12:37:56.407Z,65.58
2023-05-19T12:40:23.748Z,65.54
2023-05-19T12:42:53.428Z,66.04
2023-05-19T12:45:23.248Z,67.51
2023-05-19T12:47:52.835Z,67.87
2023-05-19T12:50:20.361Z,67.45
2023-05-19T12:52:52.064Z,67.65
2023-05-19T12:55:21.086Z,69.03
2023-05-19T12:58:00.052Z,69.43
2023-05-19T13:00:32.518Z,67.98
2023-05-19T13:03:05.706Z,67.21
2023-05-19T13:05:43.478Z,67.91
2023-05-19T13:08:16.269Z,68.09
2023-05-19T13:10:44.912Z,68.11
2023-05-19T13:13:13.055Z,68.87
2023-05-19T13:15:44.966Z,69.13
2023-05-19T13:18:13.825Z,69.11
2023-05-19T13:20:42.590Z,68.05
2023-05-19T13:23:11.471Z,66.77
2023-05-19T13:25:39.198Z,66.29
2023-05-19T13:28:06.769Z,65.03
2023-05-19T13:30:36.038Z,64.97
2023-05-19T13:33:03.817Z,67.21
2023-05-19T13:35:36.951Z,64.23
2023-05-19T13:38:12.091Z,63.26
2023-05-19T13:40:40.107Z,64.24
2023-05-19T13:43:08.629Z,64.14
2023-05-19T13:45:36.551Z,64.44
2023-05-19T13:48:04.166Z,65.53
2023-05-19T13:50:31.713Z,64.71
2023-05-19T13:52:59.127Z,64.91
2023-05-19T13:55:27.546Z,63.17
2023-05-19T13:57:54.829Z,64.14
2023-05-19T14:00:22.381Z,64.35
2023-05-19T14:02:49.852Z,64.70
2023-05-19T14:05:17.332Z,65.87
2023-05-19T14:07:44.793Z,66.22
2023-05-19T14:10:12.145Z,66.11
2023-05-19T14:12:49.339Z,65.31
2023-05-19T14:15:26.848Z,64.92
2023-05-19T14:17:54.148Z,65.10
2023-05-19T14:20:21.862Z,65.51
2023-05-19T14:22:49.087Z,65.78
2023-05-19T14:25:16.426Z,66.06
2023-05-19T14:27:43.594Z,67.03
2023-05-19T14:30:11.124Z,66.49
2023-05-19T14:32:39.464Z,67.16
2023-05-19T14:35:07.162Z,65.39
2023-05-19T14:37:34.376Z,65.42
2023-05-19T14:40:01.804Z,65.72
2023-05-19T14:42:28.974Z,66.41
2023-05-19T14:44:56.364Z,64.97
2023-05-19T14:47:24.376Z,64.73
2023-05-19T14:49:52.877Z,64.61
2023-05-19T14:52:20.123Z,64.84
2023-05-19T14:54:47.390Z,64.73
2023-05-19T14:57:14.600Z,64.97
2023-05-19T14:59:41.960Z,64.99
2023-05-19T15:02:09.168Z,64.46
2023-05-19T15:04:36.463Z,64.97
2023-05-19T15:09:33.831Z,64.28
2023-05-19T15:12:01.354Z,63.53
2023-05-19T15:14:30.425Z,63.28
2023-05-19T15:16:58.761Z,62.43
2023-05-19T15:19:26.446Z,62.66
2023-05-19T15:21:54.223Z,62.71
2023-05-19T15:24:21.608Z,63.14
2023-05-19T15:26:48.916Z,64.32
2023-05-19T15:29:16.432Z,64.97
2023-05-19T15:31:43.874Z,63.53
2023-05-19T15:34:11.212Z,62.95
2023-05-19T15:36:38.581Z,64.62
2023-05-19T15:39:06.515Z,63.33
2023-05-19T15:41:33.915Z,60.23
2023-05-19T15:44:02.422Z,61.05
2023-05-19T15:46:30.223Z,62.09
2023-05-19T15:48:57.543Z,61.43
2023-05-19T15:51:25.158Z,61.00
2023-05-19T15:53:52.740Z,61.85
2023-05-19T15:56:20.052Z,62.62
2023-05-19T15:58:47.558Z,64.60
2023-05-19T16:01:16.149Z,65.42
2023-05-19T16:03:44.095Z,65.75
2023-05-19T16:06:11.562Z,65.88
2023-05-19T16:08:39.056Z,67.58
2023-05-19T16:11:06.257Z,67.61
2023-05-19T16:13:34.046Z,67.83
2023-05-19T16:16:01.695Z,68.43
2023-05-19T16:18:31.785Z,66.60
2023-05-19T16:20:59.067Z,65.08
2023-05-19T16:23:27.464Z,64.79
2023-05-19T16:25:54.910Z,63.12
2023-05-19T16:28:24.504Z,63.35
2023-05-19T16:30:52.192Z,63.84
2023-05-19T16:33:19.370Z,64.64
2023-05-19T16:35:46.590Z,65.08
2023-05-19T16:38:13.747Z,65.16
2023-05-19T16:40:41.076Z,65.55
2023-05-19T16:43:08.276Z,65.87
2023-05-19T16:45:35.560Z,65.74
2023-05-19T16:48:02.883Z,66.66
2023-05-19T16:50:30.343Z,66.70
2023-05-19T16:52:57.535Z,66.52
2023-05-19T16:55:25.456Z,66.97
2023-05-19T16:57:52.698Z,67.55
2023-05-19T17:00:20.097Z,67.67
2023-05-19T17:02:47.406Z,68.33
2023-05-19T17:05:14.867Z,68.43
2023-05-19T17:07:42.082Z,69.27
2023-05-19T17:10:09.632Z,69.10
2023-05-19T17:12:36.992Z,69.33
2023-05-19T17:15:04.720Z,69.57
2023-05-19T17:17:31.929Z,70.42
2023-05-19T17:19:59.776Z,70.22
2023-05-19T17:22:28.250Z,70.44
2023-05-19T17:24:57.580Z,71.54
2023-05-19T17:27:24.901Z,71.11
2023-05-19T17:29:52.143Z,70.69
2023-05-19T17:32:22.196Z,70.67
2023-05-19T17:34:49.629Z,70.92
2023-05-19T17:37:19.141Z,71.22
2023-05-19T17:39:46.392Z,72.32
2023-05-19T17:42:13.710Z,72.11
2023-05-19T17:44:41.371Z,72.70
2023-05-19T17:47:08.617Z,72.73
2023-05-19T17:49:36.076Z,73.07
2023-05-19T17:52:03.593Z,73.92
2023-05-19T17:54:30.944Z,74.63
2023-05-19T17:57:01.628Z,75.65
2023-05-19T17:59:30.195Z,76.35
2023-05-19T18:01:57.701Z,77.54
2023-05-19T18:04:25.541Z,77.58
2023-05-19T18:06:53.243Z,78.20
2023-05-19T18:09:23.304Z,78.90
2023-05-19T18:11:50.683Z,79.68
2023-05-19T18:14:18.220Z,80.81
2023-05-19T18:16:45.518Z,81.01
2023-05-19T18:19:12.956Z,81.81
2023-05-19T18:21:40.241Z,82.12
2023-05-19T18:24:07.466Z,81.66
2023-05-19T18:26:34.647Z,81.16
2023-05-19T18:29:04.930Z,82.50
2023-05-19T18:31:32.378Z,82.68
2023-05-19T18:33:59.654Z,81.32
2023-05-19T18:36:26.931Z,82.90
2023-05-19T18:38:55.148Z,82.63
2023-05-19T18:41:22.484Z,83.22
2023-05-19T18:43:49.980Z,83.28
2023-05-19T18:46:18.125Z,83.28
2023-05-19T18:48:45.494Z,83.24
2023-05-19T18:51:15.730Z,83.60
2023-05-19T18:53:42.969Z,84.84
2023-05-19T18:56:15.062Z,84.43
2023-05-19T18:58:42.396Z,84.33
2023-05-19T19:01:09.730Z,83.62
2023-05-19T19:03:36.957Z,84.83
2023-05-19T19:06:04.222Z,85.51
2023-05-19T19:08:31.438Z,85.22
2023-05-19T19:11:01.107Z,85.20
2023-05-19T19:13:28.430Z,84.44
2023-05-19T19:15:55.642Z,85.01
2023-05-19T19:18:22.982Z,84.78
2023-05-19T19:20:50.271Z,84.24
2023-05-19T19:23:17.488Z,84.57
2023-05-19T19:25:44.712Z,84.57
2023-05-19T19:28:12.052Z,84.95
2023-05-19T19:30:39.233Z,85.58
2023-05-19T19:33:06.968Z,85.58
2023-05-19T19:35:35.009Z,86.04
2023-05-19T19:38:02.269Z,85.76
2023-05-19T19:40:29.736Z,86.14
2023-05-19T19:42:56.946Z,86.78
2023-05-19T19:45:24.112Z,86.45
2023-05-19T19:47:51.856Z,86.92
2023-05-19T19:50:19.139Z,87.41
2023-05-19T19:52:46.480Z,87.03
2023-05-19T19:55:13.849Z,86.14
2023-05-19T19:57:41.103Z,85.94
2023-05-19T20:00:09.159Z,86.04
2023-05-19T20:02:45.376Z,86.47
2023-05-19T20:05:18.986Z,86.65
2023-05-19T20:07:46.209Z,86.45
2023-05-19T20:10:13.572Z,86.67
2023-05-19T20:12:40.919Z,86.74
2023-05-19T20:15:08.767Z,87.04
2023-05-19T20:17:36.058Z,87.12
2023-05-19T20:20:08.031Z,87.66
2023-05-19T20:22:35.512Z,87.20
2023-05-19T20:25:02.862Z,88.09
2023-05-19T20:27:30.079Z,87.79
2023-05-19T20:29:57.302Z,87.88
2023-05-19T20:32:24.548Z,88.66
2023-05-19T20:34:51.831Z,88.52
2023-05-19T20:37:19.084Z,88.54
2023-05-19T20:39:46.262Z,88.12
2023-05-19T20:42:13.730Z,88.57
2023-05-19T20:44:41.586Z,88.22
2023-05-19T20:47:09.008Z,87.42
2023-05-19T20:49:36.363Z,87.98
2023-05-19T20:52:03.887Z,87.36
2023-05-19T20:54:31.073Z,87.96
2023-05-19T20:56:58.313Z,87.54
2023-05-19T20:59:26.023Z,86.99
2023-05-19T21:01:53.303Z,87.72
2023-05-19T21:04:20.550Z,87.35
2023-05-19T21:06:47.807Z,87.41
2023-05-19T21:09:15.067Z,88.41
2023-05-19T21:11:42.353Z,87.83
2023-05-19T21:14:09.634Z,88.10
2023-05-19T21:16:38.919Z,87.71
2023-05-19T21:19:06.973Z,88.31
2023-05-19T21:21:34.375Z,88.89
2023-05-19T21:24:01.515Z,88.42
2023-05-19T21:26:28.931Z,89.52
2023-05-19T21:28:56.607Z,89.40
2023-05-19T21:31:23.894Z,90.22
2023-05-19T21:33:51.060Z,88.86
2023-05-19T21:36:18.466Z,90.60
2023-05-19T21:38:46.123Z,91.04
2023-05-19T21:41:13.383Z,90.62
2023-05-19T21:43:42.092Z,91.00
2023-05-19T21:46:09.358Z,90.65
2023-05-19T21:48:36.608Z,90.28
2023-05-19T21:51:03.979Z,90.74
2023-05-19T21:53:32.592Z,90.78
2023-05-19T21:56:00.326Z,90.69
2023-05-19T21:58:27.547Z,90.07
2023-05-19T22:00:54.915Z,90.15
2023-05-19T22:03:22.399Z,90.17
2023-05-19T22:05:51.817Z,91.05
2023-05-19T22:08:20.999Z,90.37
2023-05-19T22:10:52.628Z,91.51
2023-05-19T22:13:20.327Z,91.19
2023-05-19T22:15:47.608Z,90.84
2023-05-19T22:18:14.952Z,91.25
2023-05-19T22:20:42.132Z,90.82
2023-05-19T22:23:09.429Z,91.13
2023-05-19T22:25:36.799Z,91.19
2023-05-19T22:28:05.692Z,90.41
2023-05-19T22:30:33.249Z,90.49
2023-05-19T22:33:00.647Z,90.96
2023-05-19T22:35:27.883Z,90.52
2023-05-19T22:37:55.744Z,91.67
2023-05-19T22:40:22.950Z,90.52
2023-05-19T22:42:50.120Z,90.32
2023-05-19T22:45:17.402Z,91.51
2023-05-19T22:47:44.778Z,93.46
2023-05-19T22:50:12.379Z,92.77
2023-05-19T22:52:39.628Z,92.63
2023-05-19T22:55:07.489Z,93.29
2023-05-19T22:57:34.801Z,93.04
2023-05-19T23:00:02.215Z,93.24
2023-05-19T23:02:29.534Z,93.63
2023-05-19T23:04:56.969Z,93.59
2023-05-19T23:07:24.231Z,93.48
2023-05-19T23:09:51.537Z,92.13
2023-05-19T23:12:18.724Z,92.82
2023-05-19T23:14:46.270Z,92.75
2023-05-19T23:17:13.651Z,92.53
2023-05-19T23:19:40.909Z,92.87
2023-05-19T23:22:08.093Z,93.28
2023-05-19T23:24:35.280Z,93.15
2023-05-19T23:27:02.530Z,94.24
2023-05-19T23:29:29.677Z,93.71
2023-05-19T23:31:56.997Z,92.63
2023-05-19T23:34:24.211Z,93.47
2023-05-19T23:36:51.472Z,94.59
2023-05-19T23:39:18.818Z,93.97
2023-05-19T23:41:46.190Z,93.34
2023-05-19T23:44:13.363Z,93.24
2023-05-19T23:46:41.445Z,93.51
2023-05-19T23:49:08.688Z,93.56
2023-05-19T23:51:36.106Z,94.44
2023-05-19T23:54:03.436Z,93.89
2023-05-19T23:56:30.800Z,94.05
2023-05-19T23:58:57.950Z,93.71
